In Rescue
 
Open Full Screen Window  High Contrast Mode
Wind Gusting 15 knots
07
October 25, 2021 4:42 PM EDT
Present Weather: Light Rain
Weather Information
Wind Direction
  010 °
Wind Speed
  07 kt (8 mph)
Wind Gust
  15 kt (17 mph)
Altimeter
29.76 in
Visibility
10 SM
Temperature
08° C
46° F
Dewpoint
07° C
45° F
Humidity
93%
1hr Rain Fall
00.01 in.
24hr Rain Fall
01.97 in.
Sky Condition
Overcast @ 800 ft
IFR

METAR KJYM 252042Z AUTO 01007G15KT 10SM -RA OVC008 08/07 A2976 RMK AO2 T00840072 P0001

FAA Disclaimer: The data displayed is for advisory purposes only and is not to be used for flight planning or operations.